TCN7MP EDDL-LGKR
Flight info
| Callsign | TCN7MP |
|---|---|
| Flight time | 2h 24m |
| Altitude | 35000 |
| Route | DODEN7Z DODEN Y853 BOMBI DCT DETEV DCT DINKU/N0445F330 M867 XERUM DCT BAVAX DCT RADIZ/N0444F350 DCT ALIVO DCT UNIPA DCT VAKSU DCT RODON DCT LIMJA N732 PITAS |
| Aircraft | A321/M-SDE3FGHIRWY/LB1 |
Departure
| Time | 2026-05-05 15:23 |
|---|---|
| Airport | Düsseldorf Airport (EDDL) |
Arrival
| Time | 2026-05-05 17:48 |
|---|---|
| Airport | Corfu Ioannis Kapodistrias International Airport (LGKR) |
| Time | Latitude | Longitude | Altitude | Speed | Heading |
|---|---|---|---|---|---|
| 2026-05-05 14:52 | 51.27585 | 6.75651 | 130 ft | 0 kts | 63° |
| 2026-05-05 15:16 | 51.27579 | 6.75631 | 125 ft | 4 kts | 54° |
| 2026-05-05 15:16 | 51.27560 | 6.75602 | 127 ft | 4 kts | 26° |
| 2026-05-05 15:17 | 51.27536 | 6.75592 | 127 ft | 4 kts | 355° |
| 2026-05-05 15:17 | 51.27516 | 6.75599 | 126 ft | 0 kts | 333° |
| 2026-05-05 15:19 | 51.27519 | 6.75597 | 126 ft | 3 kts | 333° |
| 2026-05-05 15:20 | 51.27564 | 6.75561 | 127 ft | 9 kts | 333° |
| 2026-05-05 15:20 | 51.27620 | 6.75523 | 125 ft | 9 kts | 339° |
| 2026-05-05 15:20 | 51.27684 | 6.75476 | 126 ft | 14 kts | 333° |
| 2026-05-05 15:20 | 51.27776 | 6.75402 | 123 ft | 15 kts | 333° |
| 2026-05-05 15:21 | 51.27861 | 6.75333 | 124 ft | 11 kts | 333° |
| 2026-05-05 15:21 | 51.27928 | 6.75280 | 122 ft | 11 kts | 335° |
| 2026-05-05 15:21 | 51.27993 | 6.75275 | 122 ft | 9 kts | 31° |
| 2026-05-05 15:21 | 51.28029 | 6.75341 | 123 ft | 6 kts | 53° |
| 2026-05-05 15:22 | 51.28031 | 6.75345 | 124 ft | 0 kts | 53° |
| 2026-05-05 15:22 | 51.28031 | 6.75347 | 125 ft | 3 kts | 53° |
| 2026-05-05 15:22 | 51.28161 | 6.75616 | 128 ft | 66 kts | 52° |
| 2026-05-05 15:23 | 51.28566 | 6.76468 | 125 ft | 125 kts | 53° |
| 2026-05-05 15:23 | 51.29194 | 6.77778 | 138 ft | 169 kts | 49° |
| 2026-05-05 15:23 | 51.29905 | 6.79356 | 653 ft | 174 kts | 53° |
| 2026-05-05 15:23 | 51.30593 | 6.80922 | 1415 ft | 170 kts | 52° |
| 2026-05-05 15:24 | 51.31329 | 6.82494 | 1855 ft | 180 kts | 52° |
| 2026-05-05 15:24 | 51.32099 | 6.84119 | 2252 ft | 188 kts | 52° |
| 2026-05-05 15:24 | 51.32922 | 6.85787 | 2585 ft | 198 kts | 51° |
| 2026-05-05 15:24 | 51.33802 | 6.87545 | 2976 ft | 206 kts | 53° |
| 2026-05-05 15:25 | 51.34628 | 6.89459 | 3413 ft | 211 kts | 63° |
| 2026-05-05 15:25 | 51.35077 | 6.91691 | 3914 ft | 212 kts | 80° |
| 2026-05-05 15:25 | 51.35147 | 6.94046 | 4426 ft | 213 kts | 94° |
| 2026-05-05 15:25 | 51.34913 | 6.96386 | 4936 ft | 213 kts | 101° |
| 2026-05-05 15:26 | 51.34649 | 6.98773 | 5215 ft | 228 kts | 100° |
| 2026-05-05 15:26 | 51.34385 | 7.01442 | 5326 ft | 257 kts | 99° |
| 2026-05-05 15:26 | 51.34101 | 7.04361 | 5753 ft | 271 kts | 99° |
| 2026-05-05 15:26 | 51.33807 | 7.07369 | 6412 ft | 276 kts | 100° |
| 2026-05-05 15:27 | 51.33505 | 7.10413 | 7083 ft | 279 kts | 101° |
| 2026-05-05 15:27 | 51.33195 | 7.13497 | 7769 ft | 282 kts | 101° |
| 2026-05-05 15:27 | 51.32698 | 7.16523 | 8441 ft | 283 kts | 115° |
| 2026-05-05 15:27 | 51.31719 | 7.19249 | 9115 ft | 283 kts | 130° |
| 2026-05-05 15:28 | 51.30370 | 7.21538 | 9790 ft | 284 kts | 137° |
| 2026-05-05 15:28 | 51.28940 | 7.23790 | 10161 ft | 298 kts | 137° |
| 2026-05-05 15:28 | 51.27404 | 7.26201 | 10281 ft | 319 kts | 137° |
| 2026-05-05 15:28 | 51.25770 | 7.28768 | 10490 ft | 336 kts | 137° |
| 2026-05-05 15:29 | 51.24113 | 7.31379 | 10999 ft | 342 kts | 137° |
| 2026-05-05 15:29 | 51.22393 | 7.34094 | 11611 ft | 345 kts | 137° |
| 2026-05-05 15:29 | 51.20703 | 7.36763 | 12195 ft | 348 kts | 136° |
| 2026-05-05 15:29 | 51.18971 | 7.39494 | 12787 ft | 351 kts | 137° |
| 2026-05-05 15:30 | 51.17226 | 7.42239 | 13398 ft | 355 kts | 137° |
| 2026-05-05 15:30 | 51.15459 | 7.45016 | 13962 ft | 358 kts | 137° |
| 2026-05-05 15:30 | 51.13671 | 7.47791 | 14503 ft | 361 kts | 137° |
| 2026-05-05 15:30 | 51.11831 | 7.50606 | 15056 ft | 363 kts | 137° |
| 2026-05-05 15:31 | 51.10021 | 7.53356 | 15582 ft | 366 kts | 137° |
| 2026-05-05 15:31 | 51.08168 | 7.56163 | 16117 ft | 369 kts | 137° |
| 2026-05-05 15:31 | 51.06307 | 7.58985 | 16642 ft | 372 kts | 137° |
| 2026-05-05 15:31 | 51.04428 | 7.61839 | 17160 ft | 375 kts | 137° |
| 2026-05-05 15:32 | 51.02536 | 7.64713 | 17686 ft | 377 kts | 137° |
| 2026-05-05 15:32 | 51.00633 | 7.67604 | 18180 ft | 380 kts | 137° |
| 2026-05-05 15:32 | 50.98716 | 7.70513 | 18638 ft | 382 kts | 137° |
| 2026-05-05 15:32 | 50.96751 | 7.73366 | 19061 ft | 383 kts | 143° |
| 2026-05-05 15:33 | 50.94545 | 7.75736 | 19488 ft | 384 kts | 149° |
| 2026-05-05 15:33 | 50.92264 | 7.77975 | 19923 ft | 386 kts | 149° |
| 2026-05-05 15:33 | 50.89973 | 7.80228 | 20363 ft | 388 kts | 149° |
| 2026-05-05 15:33 | 50.87667 | 7.82499 | 20792 ft | 391 kts | 149° |
| 2026-05-05 15:34 | 50.85388 | 7.84748 | 21222 ft | 393 kts | 149° |
| 2026-05-05 15:34 | 50.83065 | 7.87037 | 21653 ft | 395 kts | 149° |
| 2026-05-05 15:34 | 50.80729 | 7.89331 | 22074 ft | 397 kts | 149° |
| 2026-05-05 15:34 | 50.78376 | 7.91639 | 22486 ft | 399 kts | 149° |
| 2026-05-05 15:35 | 50.76008 | 7.93958 | 22892 ft | 401 kts | 149° |
| 2026-05-05 15:35 | 50.73631 | 7.96283 | 23299 ft | 403 kts | 149° |
| 2026-05-05 15:35 | 50.71245 | 7.98612 | 23643 ft | 405 kts | 149° |
| 2026-05-05 15:35 | 50.68842 | 8.00956 | 23975 ft | 406 kts | 149° |
| 2026-05-05 15:36 | 50.66430 | 8.03301 | 24322 ft | 408 kts | 149° |
| 2026-05-05 15:36 | 50.64822 | 8.04861 | 24553 ft | 409 kts | 149° |
| 2026-05-05 15:36 | 50.62388 | 8.07222 | 24888 ft | 410 kts | 149° |
| 2026-05-05 15:36 | 50.59406 | 8.10378 | 25290 ft | 414 kts | 142° |
| 2026-05-05 15:37 | 50.57912 | 8.12346 | 25494 ft | 415 kts | 142° |
| 2026-05-05 15:37 | 50.55698 | 8.15267 | 25819 ft | 416 kts | 142° |
| 2026-05-05 15:37 | 50.53469 | 8.18194 | 26125 ft | 418 kts | 142° |
| 2026-05-05 15:37 | 50.51232 | 8.21124 | 26428 ft | 419 kts | 142° |
| 2026-05-05 15:38 | 50.49016 | 8.24028 | 26739 ft | 421 kts | 142° |
| 2026-05-05 15:38 | 50.46807 | 8.26922 | 27035 ft | 422 kts | 142° |
| 2026-05-05 15:38 | 50.44548 | 8.29874 | 27322 ft | 423 kts | 142° |
| 2026-05-05 15:38 | 50.42331 | 8.32762 | 27602 ft | 425 kts | 142° |
| 2026-05-05 15:39 | 50.40100 | 8.35663 | 27893 ft | 426 kts | 142° |
| 2026-05-05 15:39 | 50.37814 | 8.38633 | 28232 ft | 428 kts | 142° |
| 2026-05-05 15:39 | 50.35580 | 8.41536 | 28584 ft | 429 kts | 142° |
| 2026-05-05 15:39 | 50.33403 | 8.44361 | 28922 ft | 431 kts | 142° |
| 2026-05-05 15:40 | 50.31088 | 8.47360 | 29266 ft | 432 kts | 142° |
| 2026-05-05 15:40 | 50.28798 | 8.50324 | 29545 ft | 433 kts | 142° |
| 2026-05-05 15:40 | 50.26473 | 8.53331 | 29862 ft | 434 kts | 142° |
| 2026-05-05 15:40 | 50.24144 | 8.56335 | 30232 ft | 432 kts | 142° |
| 2026-05-05 15:41 | 50.21831 | 8.59317 | 30598 ft | 431 kts | 143° |
| 2026-05-05 15:41 | 50.19520 | 8.62292 | 30952 ft | 429 kts | 143° |
| 2026-05-05 15:41 | 50.17231 | 8.65236 | 31335 ft | 427 kts | 143° |
| 2026-05-05 15:41 | 50.14991 | 8.68111 | 31695 ft | 426 kts | 143° |
| 2026-05-05 15:42 | 50.12703 | 8.71037 | 32049 ft | 424 kts | 143° |
| 2026-05-05 15:42 | 50.10468 | 8.73894 | 32413 ft | 423 kts | 143° |
| 2026-05-05 15:42 | 50.08215 | 8.76818 | 32748 ft | 422 kts | 140° |
| 2026-05-05 15:42 | 50.06206 | 8.80103 | 33083 ft | 425 kts | 132° |
| 2026-05-05 15:43 | 50.04519 | 8.83893 | 33403 ft | 428 kts | 123° |
| 2026-05-05 15:43 | 50.03172 | 8.88031 | 33712 ft | 429 kts | 120° |
| 2026-05-05 15:43 | 50.01881 | 8.92220 | 33983 ft | 429 kts | 120° |
| 2026-05-05 15:43 | 50.00588 | 8.96400 | 34207 ft | 429 kts | 120° |
| 2026-05-05 15:44 | 49.99316 | 9.00488 | 34406 ft | 429 kts | 120° |
| 2026-05-05 15:44 | 49.98054 | 9.04522 | 34594 ft | 430 kts | 120° |
| 2026-05-05 15:44 | 49.96743 | 9.08700 | 34764 ft | 431 kts | 120° |
| 2026-05-05 15:45 | 49.94176 | 9.16869 | 34834 ft | 429 kts | 120° |
| 2026-05-05 15:45 | 49.91587 | 9.25094 | 34835 ft | 429 kts | 120° |
| 2026-05-05 15:46 | 49.88966 | 9.33403 | 34835 ft | 429 kts | 120° |
| 2026-05-05 15:46 | 49.86404 | 9.41510 | 34834 ft | 429 kts | 120° |
| 2026-05-05 15:47 | 49.83831 | 9.49604 | 34835 ft | 429 kts | 121° |
| 2026-05-05 15:47 | 49.80350 | 9.57102 | 34831 ft | 419 kts | 139° |
| 2026-05-05 15:48 | 49.76102 | 9.63266 | 34827 ft | 419 kts | 140° |
| 2026-05-05 15:48 | 49.71924 | 9.69334 | 34829 ft | 419 kts | 140° |
| 2026-05-05 15:49 | 49.67752 | 9.75389 | 34829 ft | 419 kts | 140° |
| 2026-05-05 15:49 | 49.63492 | 9.81535 | 34829 ft | 419 kts | 140° |
| 2026-05-05 15:50 | 49.59223 | 9.87674 | 34830 ft | 419 kts | 140° |
| 2026-05-05 15:50 | 49.54980 | 9.93760 | 34828 ft | 419 kts | 140° |
| 2026-05-05 15:51 | 49.50743 | 9.99810 | 34825 ft | 419 kts | 140° |
| 2026-05-05 15:51 | 49.46467 | 10.05916 | 34831 ft | 420 kts | 140° |
| 2026-05-05 15:52 | 49.42254 | 10.11925 | 34831 ft | 420 kts | 140° |
| 2026-05-05 15:52 | 49.37968 | 10.18013 | 34831 ft | 420 kts | 140° |
| 2026-05-05 15:53 | 49.33674 | 10.24104 | 34833 ft | 420 kts | 140° |
| 2026-05-05 15:53 | 49.29407 | 10.30137 | 34841 ft | 420 kts | 140° |
| 2026-05-05 15:54 | 49.25098 | 10.36205 | 34846 ft | 421 kts | 141° |
| 2026-05-05 15:54 | 49.20402 | 10.41228 | 34853 ft | 416 kts | 152° |
| 2026-05-05 15:55 | 49.15515 | 10.45677 | 34856 ft | 417 kts | 152° |
| 2026-05-05 15:55 | 49.10587 | 10.50163 | 34852 ft | 417 kts | 152° |
| 2026-05-05 15:56 | 49.05663 | 10.54645 | 34856 ft | 417 kts | 152° |
| 2026-05-05 15:56 | 49.00677 | 10.59169 | 34847 ft | 417 kts | 152° |
| 2026-05-05 15:57 | 48.95732 | 10.63636 | 34848 ft | 418 kts | 152° |
| 2026-05-05 15:57 | 48.90722 | 10.68147 | 34842 ft | 418 kts | 152° |
| 2026-05-05 15:58 | 48.85829 | 10.72547 | 34834 ft | 419 kts | 152° |
| 2026-05-05 15:58 | 48.81007 | 10.77330 | 34825 ft | 422 kts | 142° |
| 2026-05-05 15:59 | 48.76934 | 10.83821 | 34809 ft | 426 kts | 136° |
| 2026-05-05 15:59 | 48.73026 | 10.90375 | 34798 ft | 427 kts | 136° |
| 2026-05-05 16:00 | 48.69085 | 10.96960 | 34788 ft | 427 kts | 136° |
| 2026-05-05 16:00 | 48.65082 | 11.03641 | 34786 ft | 428 kts | 136° |
| 2026-05-05 16:01 | 48.61069 | 11.10331 | 34785 ft | 429 kts | 136° |
| 2026-05-05 16:01 | 48.57095 | 11.16927 | 34781 ft | 430 kts | 136° |
| 2026-05-05 16:02 | 48.53091 | 11.23547 | 34808 ft | 432 kts | 136° |
| 2026-05-05 16:02 | 48.49097 | 11.30155 | 34807 ft | 433 kts | 136° |
| 2026-05-05 16:03 | 48.45033 | 11.36855 | 34805 ft | 434 kts | 136° |
| 2026-05-05 16:03 | 48.41017 | 11.43458 | 34816 ft | 435 kts | 136° |
| 2026-05-05 16:04 | 48.36920 | 11.50175 | 34818 ft | 436 kts | 137° |
| 2026-05-05 16:04 | 48.32809 | 11.56898 | 34812 ft | 436 kts | 137° |
| 2026-05-05 16:05 | 48.28739 | 11.63544 | 34816 ft | 437 kts | 137° |
| 2026-05-05 16:05 | 48.24550 | 11.70176 | 34809 ft | 436 kts | 140° |
| 2026-05-05 16:06 | 48.20101 | 11.76352 | 34801 ft | 435 kts | 143° |
| 2026-05-05 16:06 | 48.15584 | 11.82323 | 34789 ft | 436 kts | 143° |
| 2026-05-05 16:07 | 48.11098 | 11.88358 | 34778 ft | 437 kts | 142° |
| 2026-05-05 16:07 | 48.06669 | 11.94419 | 34770 ft | 439 kts | 142° |
| 2026-05-05 16:08 | 48.02206 | 12.00539 | 34750 ft | 439 kts | 142° |
| 2026-05-05 16:08 | 47.97740 | 12.06648 | 34746 ft | 439 kts | 142° |
| 2026-05-05 16:09 | 47.93283 | 12.12688 | 34743 ft | 440 kts | 142° |
| 2026-05-05 16:09 | 47.88739 | 12.18817 | 34741 ft | 441 kts | 142° |
| 2026-05-05 16:10 | 47.84185 | 12.24961 | 34737 ft | 441 kts | 142° |
| 2026-05-05 16:10 | 47.79674 | 12.31039 | 34735 ft | 442 kts | 142° |
| 2026-05-05 16:11 | 47.75110 | 12.37184 | 34736 ft | 443 kts | 142° |
| 2026-05-05 16:12 | 47.65938 | 12.49449 | 34741 ft | 445 kts | 142° |
| 2026-05-05 16:13 | 47.53897 | 12.63457 | 34759 ft | 443 kts | 148° |
| 2026-05-05 16:13 | 47.48932 | 12.68877 | 34759 ft | 444 kts | 148° |
| 2026-05-05 16:14 | 47.39010 | 12.79671 | 34780 ft | 446 kts | 148° |
| 2026-05-05 16:15 | 47.29029 | 12.90508 | 34819 ft | 447 kts | 147° |
| 2026-05-05 16:16 | 47.19102 | 13.01200 | 34850 ft | 446 kts | 148° |
| 2026-05-05 16:17 | 47.11581 | 13.09283 | 34869 ft | 446 kts | 148° |
| 2026-05-05 16:18 | 47.04112 | 13.17278 | 34891 ft | 446 kts | 147° |
| 2026-05-05 16:19 | 46.96728 | 13.25163 | 34912 ft | 446 kts | 148° |
| 2026-05-05 16:19 | 46.89272 | 13.33085 | 34931 ft | 446 kts | 148° |
| 2026-05-05 16:20 | 46.79294 | 13.43664 | 34936 ft | 446 kts | 148° |
| 2026-05-05 16:22 | 46.66699 | 13.56922 | 34948 ft | 447 kts | 148° |
| 2026-05-05 16:23 | 46.56687 | 13.67409 | 34958 ft | 448 kts | 148° |
| 2026-05-05 16:23 | 46.49951 | 13.74435 | 34965 ft | 448 kts | 148° |
| 2026-05-05 16:24 | 46.44877 | 13.79712 | 34972 ft | 448 kts | 148° |
| 2026-05-05 16:25 | 46.37427 | 13.87443 | 34976 ft | 448 kts | 148° |
| 2026-05-05 16:25 | 46.29808 | 13.95336 | 34985 ft | 449 kts | 148° |
| 2026-05-05 16:26 | 46.19620 | 14.05814 | 34991 ft | 449 kts | 148° |
| 2026-05-05 16:27 | 46.14547 | 14.11013 | 34990 ft | 450 kts | 148° |
| 2026-05-05 16:27 | 46.09436 | 14.16247 | 34994 ft | 450 kts | 148° |
| 2026-05-05 16:28 | 46.04375 | 14.21422 | 34993 ft | 451 kts | 148° |
| 2026-05-05 16:28 | 45.99258 | 14.26655 | 34990 ft | 451 kts | 148° |
| 2026-05-05 16:29 | 45.94182 | 14.31818 | 35003 ft | 451 kts | 148° |
| 2026-05-05 16:29 | 45.89086 | 14.36979 | 35001 ft | 451 kts | 148° |
| 2026-05-05 16:30 | 45.83946 | 14.42169 | 35000 ft | 451 kts | 148° |
| 2026-05-05 16:30 | 45.78912 | 14.47255 | 34997 ft | 452 kts | 148° |
| 2026-05-05 16:31 | 45.73769 | 14.52438 | 34999 ft | 452 kts | 148° |
| 2026-05-05 16:31 | 45.68674 | 14.57570 | 34996 ft | 452 kts | 148° |
| 2026-05-05 16:32 | 45.63519 | 14.62745 | 34996 ft | 452 kts | 148° |
| 2026-05-05 16:32 | 45.58451 | 14.67814 | 34991 ft | 453 kts | 148° |
| 2026-05-05 16:33 | 45.53285 | 14.72955 | 34991 ft | 453 kts | 147° |
| 2026-05-05 16:33 | 45.48440 | 14.78611 | 34993 ft | 455 kts | 142° |
| 2026-05-05 16:34 | 45.43628 | 14.84441 | 34996 ft | 455 kts | 142° |
| 2026-05-05 16:34 | 45.38844 | 14.90198 | 35000 ft | 455 kts | 142° |
| 2026-05-05 16:35 | 45.34037 | 14.95954 | 34999 ft | 456 kts | 142° |
| 2026-05-05 16:35 | 45.29231 | 15.01692 | 34992 ft | 456 kts | 142° |
| 2026-05-05 16:36 | 45.24409 | 15.07447 | 34987 ft | 456 kts | 142° |
| 2026-05-05 16:36 | 45.19546 | 15.13231 | 34987 ft | 456 kts | 142° |
| 2026-05-05 16:37 | 45.14682 | 15.19021 | 34990 ft | 457 kts | 142° |
| 2026-05-05 16:37 | 45.09815 | 15.24806 | 34987 ft | 457 kts | 142° |
| 2026-05-05 16:38 | 45.04932 | 15.30576 | 34992 ft | 457 kts | 142° |
| 2026-05-05 16:38 | 45.00042 | 15.36331 | 34997 ft | 457 kts | 142° |
| 2026-05-05 16:39 | 44.95152 | 15.42091 | 34999 ft | 458 kts | 142° |
| 2026-05-05 16:39 | 44.90262 | 15.47848 | 35000 ft | 458 kts | 142° |
| 2026-05-05 16:40 | 44.85363 | 15.53588 | 35009 ft | 458 kts | 142° |
| 2026-05-05 16:40 | 44.80493 | 15.59288 | 35012 ft | 458 kts | 142° |
| 2026-05-05 16:41 | 44.75583 | 15.65018 | 35021 ft | 459 kts | 142° |
| 2026-05-05 16:41 | 44.70671 | 15.70741 | 35022 ft | 459 kts | 142° |
| 2026-05-05 16:42 | 44.65810 | 15.76380 | 35028 ft | 459 kts | 142° |
| 2026-05-05 16:42 | 44.60883 | 15.82086 | 35022 ft | 459 kts | 142° |
| 2026-05-05 16:43 | 44.55948 | 15.87787 | 35034 ft | 459 kts | 142° |
| 2026-05-05 16:43 | 44.51016 | 15.93472 | 35031 ft | 459 kts | 142° |
| 2026-05-05 16:44 | 44.46148 | 15.99082 | 35031 ft | 460 kts | 142° |
| 2026-05-05 16:44 | 44.41209 | 16.04772 | 35033 ft | 460 kts | 142° |
| 2026-05-05 16:45 | 44.36444 | 16.10223 | 35042 ft | 460 kts | 142° |
| 2026-05-05 16:45 | 44.31478 | 16.15894 | 35039 ft | 461 kts | 142° |
| 2026-05-05 16:46 | 44.26570 | 16.21501 | 35035 ft | 461 kts | 142° |
| 2026-05-05 16:46 | 44.21652 | 16.27092 | 35046 ft | 462 kts | 142° |
| 2026-05-05 16:47 | 44.16729 | 16.32679 | 35051 ft | 462 kts | 142° |
| 2026-05-05 16:47 | 44.11742 | 16.38335 | 35050 ft | 462 kts | 142° |
| 2026-05-05 16:48 | 44.06785 | 16.43952 | 35052 ft | 463 kts | 142° |
| 2026-05-05 16:48 | 44.01777 | 16.49571 | 35053 ft | 463 kts | 143° |
| 2026-05-05 16:49 | 43.96787 | 16.54910 | 35054 ft | 463 kts | 144° |
| 2026-05-05 16:49 | 43.91621 | 16.60281 | 35058 ft | 464 kts | 144° |
| 2026-05-05 16:50 | 43.86458 | 16.65642 | 35060 ft | 464 kts | 144° |
| 2026-05-05 16:50 | 43.81305 | 16.71040 | 35057 ft | 465 kts | 143° |
| 2026-05-05 16:51 | 43.76155 | 16.76454 | 35052 ft | 465 kts | 144° |
| 2026-05-05 16:51 | 43.70995 | 16.81853 | 35049 ft | 465 kts | 144° |
| 2026-05-05 16:52 | 43.65821 | 16.87244 | 35047 ft | 466 kts | 144° |
| 2026-05-05 16:52 | 43.60799 | 16.92467 | 35048 ft | 466 kts | 144° |
| 2026-05-05 16:53 | 43.55730 | 16.97728 | 35046 ft | 466 kts | 144° |
| 2026-05-05 16:53 | 43.50611 | 17.03034 | 35046 ft | 467 kts | 144° |
| 2026-05-05 16:54 | 43.45418 | 17.08403 | 35046 ft | 467 kts | 144° |
| 2026-05-05 16:54 | 43.40268 | 17.13710 | 35042 ft | 467 kts | 144° |
| 2026-05-05 16:55 | 43.35059 | 17.19073 | 35046 ft | 468 kts | 144° |
| 2026-05-05 16:55 | 43.29834 | 17.24432 | 35047 ft | 468 kts | 144° |
| 2026-05-05 16:56 | 43.24668 | 17.29719 | 35044 ft | 469 kts | 144° |
| 2026-05-05 16:56 | 43.19437 | 17.35064 | 35049 ft | 469 kts | 144° |
| 2026-05-05 16:57 | 43.14204 | 17.40406 | 35051 ft | 469 kts | 144° |
| 2026-05-05 16:57 | 43.08995 | 17.45710 | 35057 ft | 470 kts | 143° |
| 2026-05-05 16:58 | 43.03710 | 17.51072 | 35055 ft | 470 kts | 143° |
| 2026-05-05 16:58 | 42.98493 | 17.56358 | 35056 ft | 470 kts | 143° |
| 2026-05-05 16:59 | 42.93234 | 17.61664 | 35053 ft | 471 kts | 143° |
| 2026-05-05 16:59 | 42.87960 | 17.66982 | 35052 ft | 471 kts | 143° |
| 2026-05-05 17:00 | 42.82688 | 17.72297 | 35055 ft | 472 kts | 143° |
| 2026-05-05 17:00 | 42.77412 | 17.77602 | 35060 ft | 472 kts | 143° |
| 2026-05-05 17:01 | 42.72120 | 17.82908 | 35056 ft | 472 kts | 143° |
| 2026-05-05 17:01 | 42.66825 | 17.88196 | 35057 ft | 473 kts | 143° |
| 2026-05-05 17:02 | 42.61572 | 17.93448 | 35061 ft | 474 kts | 143° |
| 2026-05-05 17:02 | 42.56347 | 17.98652 | 35070 ft | 474 kts | 143° |
| 2026-05-05 17:03 | 42.51028 | 18.03936 | 35070 ft | 474 kts | 143° |
| 2026-05-05 17:03 | 42.45697 | 18.09215 | 35058 ft | 475 kts | 143° |
| 2026-05-05 17:04 | 42.40359 | 18.14498 | 35072 ft | 475 kts | 143° |
| 2026-05-05 17:04 | 42.35075 | 18.19720 | 35066 ft | 476 kts | 144° |
| 2026-05-05 17:05 | 42.29727 | 18.24980 | 35069 ft | 476 kts | 144° |
| 2026-05-05 17:05 | 42.24371 | 18.30242 | 35072 ft | 476 kts | 144° |
| 2026-05-05 17:06 | 42.19018 | 18.35509 | 35059 ft | 477 kts | 143° |
| 2026-05-05 17:06 | 42.13680 | 18.40750 | 35060 ft | 477 kts | 144° |
| 2026-05-05 17:07 | 42.08302 | 18.45995 | 35054 ft | 478 kts | 144° |
| 2026-05-05 17:07 | 42.02913 | 18.51237 | 35058 ft | 478 kts | 144° |
| 2026-05-05 17:08 | 41.97561 | 18.56546 | 35051 ft | 479 kts | 142° |
| 2026-05-05 17:08 | 41.92317 | 18.62068 | 35050 ft | 479 kts | 141° |
| 2026-05-05 17:09 | 41.87138 | 18.67555 | 35057 ft | 480 kts | 142° |
| 2026-05-05 17:09 | 41.81952 | 18.72952 | 35061 ft | 480 kts | 142° |
| 2026-05-05 17:10 | 41.76706 | 18.78357 | 35061 ft | 480 kts | 142° |
| 2026-05-05 17:10 | 41.71456 | 18.83738 | 35061 ft | 481 kts | 142° |
| 2026-05-05 17:11 | 41.66147 | 18.89190 | 35066 ft | 481 kts | 142° |
| 2026-05-05 17:11 | 41.60837 | 18.94646 | 35071 ft | 481 kts | 142° |
| 2026-05-05 17:12 | 41.55580 | 19.00033 | 35055 ft | 481 kts | 142° |
| 2026-05-05 17:12 | 41.50274 | 19.05461 | 35070 ft | 482 kts | 142° |
| 2026-05-05 17:13 | 41.44707 | 19.10379 | 35059 ft | 480 kts | 156° |
| 2026-05-05 17:13 | 41.38493 | 19.13586 | 35063 ft | 479 kts | 162° |
| 2026-05-05 17:14 | 41.32266 | 19.16620 | 35071 ft | 480 kts | 161° |
| 2026-05-05 17:14 | 41.26050 | 19.19660 | 35061 ft | 480 kts | 162° |
| 2026-05-05 17:15 | 41.19776 | 19.22703 | 35073 ft | 481 kts | 162° |
| 2026-05-05 17:15 | 41.13778 | 19.25615 | 35072 ft | 481 kts | 162° |
| 2026-05-05 17:16 | 41.08552 | 19.28149 | 35074 ft | 481 kts | 162° |
| 2026-05-05 17:16 | 41.02261 | 19.31198 | 35075 ft | 482 kts | 162° |
| 2026-05-05 17:17 | 40.96040 | 19.34206 | 35073 ft | 482 kts | 162° |
| 2026-05-05 17:17 | 40.89817 | 19.37200 | 35075 ft | 482 kts | 162° |
| 2026-05-05 17:18 | 40.83510 | 19.40228 | 35075 ft | 482 kts | 162° |
| 2026-05-05 17:18 | 40.77199 | 19.43259 | 35074 ft | 483 kts | 162° |
| 2026-05-05 17:19 | 40.70886 | 19.46286 | 35077 ft | 483 kts | 162° |
| 2026-05-05 17:19 | 40.64561 | 19.49306 | 35075 ft | 483 kts | 162° |
| 2026-05-05 17:20 | 40.58295 | 19.52289 | 35080 ft | 484 kts | 162° |
| 2026-05-05 17:20 | 40.51975 | 19.55294 | 35087 ft | 484 kts | 162° |
| 2026-05-05 17:21 | 40.45680 | 19.58290 | 35088 ft | 484 kts | 162° |
| 2026-05-05 17:22 | 40.36178 | 19.62782 | 35078 ft | 485 kts | 163° |
| 2026-05-05 17:22 | 40.32917 | 19.63817 | 35067 ft | 479 kts | 179° |
| 2026-05-05 17:22 | 40.29637 | 19.63671 | 35075 ft | 469 kts | 196° |
| 2026-05-05 17:22 | 40.26588 | 19.62364 | 35076 ft | 456 kts | 214° |
| 2026-05-05 17:23 | 40.23985 | 19.60110 | 35076 ft | 446 kts | 224° |
| 2026-05-05 17:23 | 40.19134 | 19.55031 | 35020 ft | 445 kts | 225° |
| 2026-05-05 17:23 | 40.16771 | 19.52537 | 34494 ft | 445 kts | 225° |
| 2026-05-05 17:24 | 40.14362 | 19.50010 | 33816 ft | 446 kts | 225° |
| 2026-05-05 17:24 | 40.11919 | 19.47455 | 33111 ft | 446 kts | 225° |
| 2026-05-05 17:24 | 40.09522 | 19.44951 | 32590 ft | 442 kts | 225° |
| 2026-05-05 17:24 | 40.07132 | 19.42458 | 32095 ft | 439 kts | 225° |
| 2026-05-05 17:25 | 40.04754 | 19.39982 | 31604 ft | 435 kts | 225° |
| 2026-05-05 17:25 | 40.03192 | 19.38356 | 31288 ft | 433 kts | 225° |
| 2026-05-05 17:25 | 40.00052 | 19.35095 | 30639 ft | 428 kts | 225° |
| 2026-05-05 17:25 | 39.97732 | 19.32688 | 30182 ft | 425 kts | 225° |
| 2026-05-05 17:26 | 39.95281 | 19.30519 | 29607 ft | 431 kts | 211° |
| 2026-05-05 17:26 | 39.92469 | 19.29341 | 29100 ft | 439 kts | 193° |
| 2026-05-05 17:26 | 39.89398 | 19.29278 | 28565 ft | 445 kts | 177° |
| 2026-05-05 17:26 | 39.86336 | 19.29811 | 28017 ft | 444 kts | 175° |
| 2026-05-05 17:27 | 39.83290 | 19.30392 | 27513 ft | 440 kts | 175° |
| 2026-05-05 17:27 | 39.80273 | 19.30965 | 27018 ft | 437 kts | 175° |
| 2026-05-05 17:27 | 39.77275 | 19.31529 | 26549 ft | 433 kts | 175° |
| 2026-05-05 17:27 | 39.74339 | 19.32076 | 26084 ft | 430 kts | 175° |
| 2026-05-05 17:28 | 39.71389 | 19.32619 | 25620 ft | 427 kts | 175° |
| 2026-05-05 17:28 | 39.68457 | 19.33154 | 25168 ft | 423 kts | 175° |
| 2026-05-05 17:28 | 39.65554 | 19.33678 | 24720 ft | 420 kts | 175° |
| 2026-05-05 17:28 | 39.62669 | 19.34194 | 24277 ft | 417 kts | 175° |
| 2026-05-05 17:29 | 39.59863 | 19.34693 | 23844 ft | 414 kts | 175° |
| 2026-05-05 17:29 | 39.57059 | 19.35188 | 23375 ft | 411 kts | 175° |
| 2026-05-05 17:29 | 39.54232 | 19.35682 | 22882 ft | 408 kts | 175° |
| 2026-05-05 17:29 | 39.51432 | 19.36169 | 22414 ft | 404 kts | 175° |
| 2026-05-05 17:30 | 39.48705 | 19.36640 | 21955 ft | 401 kts | 175° |
| 2026-05-05 17:30 | 39.45950 | 19.37114 | 21502 ft | 397 kts | 175° |
| 2026-05-05 17:30 | 39.43219 | 19.37582 | 21059 ft | 394 kts | 175° |
| 2026-05-05 17:30 | 39.40512 | 19.38044 | 20625 ft | 391 kts | 175° |
| 2026-05-05 17:31 | 39.37824 | 19.38499 | 20199 ft | 388 kts | 175° |
| 2026-05-05 17:31 | 39.35226 | 19.38937 | 19793 ft | 385 kts | 175° |
| 2026-05-05 17:31 | 39.32576 | 19.39379 | 19380 ft | 382 kts | 175° |
| 2026-05-05 17:31 | 39.29983 | 19.39808 | 18987 ft | 380 kts | 175° |
| 2026-05-05 17:32 | 39.27362 | 19.40238 | 18576 ft | 377 kts | 175° |
| 2026-05-05 17:32 | 39.24774 | 19.40668 | 18216 ft | 371 kts | 175° |
| 2026-05-05 17:32 | 39.22243 | 19.41111 | 17889 ft | 365 kts | 175° |
| 2026-05-05 17:32 | 39.19745 | 19.41548 | 17438 ft | 359 kts | 175° |
| 2026-05-05 17:33 | 39.17289 | 19.41971 | 16574 ft | 353 kts | 175° |
| 2026-05-05 17:33 | 39.14915 | 19.42368 | 15731 ft | 349 kts | 175° |
| 2026-05-05 17:33 | 39.12521 | 19.42754 | 14910 ft | 344 kts | 175° |
| 2026-05-05 17:33 | 39.10156 | 19.43123 | 14116 ft | 339 kts | 175° |
| 2026-05-05 17:34 | 39.07835 | 19.43542 | 13253 ft | 335 kts | 166° |
| 2026-05-05 17:34 | 39.05786 | 19.44758 | 12445 ft | 331 kts | 143° |
| 2026-05-05 17:34 | 39.04253 | 19.46907 | 11622 ft | 326 kts | 118° |
| 2026-05-05 17:34 | 39.03507 | 19.49611 | 10802 ft | 319 kts | 98° |
| 2026-05-05 17:35 | 39.03208 | 19.52420 | 10192 ft | 309 kts | 95° |
| 2026-05-05 17:35 | 39.02968 | 19.55098 | 9698 ft | 296 kts | 95° |
| 2026-05-05 17:35 | 39.03004 | 19.57688 | 8996 ft | 286 kts | 73° |
| 2026-05-05 17:35 | 39.03794 | 19.59960 | 8271 ft | 280 kts | 57° |
| 2026-05-05 17:36 | 39.04842 | 19.62066 | 7505 ft | 279 kts | 56° |
| 2026-05-05 17:36 | 39.05920 | 19.64127 | 6805 ft | 277 kts | 55° |
| 2026-05-05 17:36 | 39.06996 | 19.66148 | 6276 ft | 267 kts | 55° |
| 2026-05-05 17:36 | 39.08005 | 19.68034 | 6074 ft | 244 kts | 55° |
| 2026-05-05 17:37 | 39.08911 | 19.69727 | 5838 ft | 227 kts | 55° |
| 2026-05-05 17:37 | 39.09794 | 19.71378 | 5580 ft | 222 kts | 55° |
| 2026-05-05 17:37 | 39.10712 | 19.72964 | 5323 ft | 220 kts | 43° |
| 2026-05-05 17:37 | 39.11931 | 19.74078 | 5107 ft | 219 kts | 31° |
| 2026-05-05 17:38 | 39.13229 | 19.75099 | 4918 ft | 220 kts | 30° |
| 2026-05-05 17:38 | 39.14507 | 19.76094 | 4640 ft | 218 kts | 30° |
| 2026-05-05 17:38 | 39.15806 | 19.77101 | 4382 ft | 218 kts | 30° |
| 2026-05-05 17:38 | 39.17073 | 19.78084 | 4151 ft | 217 kts | 30° |
| 2026-05-05 17:39 | 39.18312 | 19.79046 | 4011 ft | 217 kts | 30° |
| 2026-05-05 17:39 | 39.19595 | 19.80046 | 4018 ft | 217 kts | 30° |
| 2026-05-05 17:39 | 39.20862 | 19.81033 | 4022 ft | 214 kts | 30° |
| 2026-05-05 17:39 | 39.22108 | 19.82006 | 4020 ft | 214 kts | 30° |
| 2026-05-05 17:40 | 39.23383 | 19.83002 | 4021 ft | 214 kts | 30° |
| 2026-05-05 17:40 | 39.24633 | 19.83977 | 4025 ft | 214 kts | 30° |
| 2026-05-05 17:40 | 39.25913 | 19.84975 | 4023 ft | 214 kts | 30° |
| 2026-05-05 17:40 | 39.27187 | 19.85972 | 4022 ft | 214 kts | 30° |
| 2026-05-05 17:41 | 39.28460 | 19.86971 | 4013 ft | 213 kts | 30° |
| 2026-05-05 17:41 | 39.29726 | 19.87964 | 3706 ft | 213 kts | 30° |
| 2026-05-05 17:41 | 39.30991 | 19.88957 | 3418 ft | 213 kts | 30° |
| 2026-05-05 17:41 | 39.32259 | 19.89955 | 3160 ft | 213 kts | 30° |
| 2026-05-05 17:42 | 39.33524 | 19.90949 | 3031 ft | 213 kts | 30° |
| 2026-05-05 17:42 | 39.34752 | 19.91913 | 3016 ft | 213 kts | 30° |
| 2026-05-05 17:42 | 39.36022 | 19.92909 | 3022 ft | 213 kts | 30° |
| 2026-05-05 17:42 | 39.37288 | 19.93903 | 3018 ft | 213 kts | 30° |
| 2026-05-05 17:43 | 39.38528 | 19.94881 | 3012 ft | 213 kts | 30° |
| 2026-05-05 17:43 | 39.39798 | 19.95881 | 3019 ft | 213 kts | 30° |
| 2026-05-05 17:43 | 39.41050 | 19.96861 | 3012 ft | 208 kts | 28° |
| 2026-05-05 17:43 | 39.42366 | 19.97436 | 3035 ft | 202 kts | 5° |
| 2026-05-05 17:44 | 39.43741 | 19.97271 | 3021 ft | 198 kts | 342° |
| 2026-05-05 17:44 | 39.45054 | 19.96764 | 2884 ft | 193 kts | 342° |
| 2026-05-05 17:44 | 39.46302 | 19.96294 | 2621 ft | 186 kts | 342° |
| 2026-05-05 17:44 | 39.47527 | 19.95838 | 2377 ft | 180 kts | 342° |
| 2026-05-05 17:45 | 39.48714 | 19.95395 | 2148 ft | 174 kts | 342° |
| 2026-05-05 17:45 | 39.49841 | 19.94977 | 1911 ft | 165 kts | 342° |
| 2026-05-05 17:45 | 39.50935 | 19.94570 | 1703 ft | 162 kts | 342° |
| 2026-05-05 17:45 | 39.51998 | 19.94173 | 1479 ft | 157 kts | 342° |
| 2026-05-05 17:46 | 39.52985 | 19.93801 | 1281 ft | 153 kts | 342° |
| 2026-05-05 17:46 | 39.53995 | 19.93409 | 1093 ft | 150 kts | 342° |
| 2026-05-05 17:46 | 39.55006 | 19.93017 | 925 ft | 154 kts | 342° |
| 2026-05-05 17:46 | 39.56004 | 19.92635 | 755 ft | 153 kts | 342° |
| 2026-05-05 17:47 | 39.57031 | 19.92261 | 561 ft | 156 kts | 341° |
| 2026-05-05 17:47 | 39.58060 | 19.91837 | 342 ft | 158 kts | 342° |
| 2026-05-05 17:47 | 39.59126 | 19.91495 | 74 ft | 158 kts | 347° |
| 2026-05-05 17:47 | 39.60143 | 19.91226 | 8 ft | 133 kts | 349° |
| 2026-05-05 17:48 | 39.60772 | 19.91063 | 6 ft | 47 kts | 349° |
| 2026-05-05 17:48 | 39.60994 | 19.91009 | 5 ft | 13 kts | 355° |
| 2026-05-05 17:48 | 39.61050 | 19.91067 | 6 ft | 7 kts | 68° |
| 2026-05-05 17:48 | 39.61052 | 19.91074 | 7 ft | 0 kts | 69° |
| 2026-05-05 17:49 | 39.61049 | 19.91120 | 8 ft | 9 kts | 129° |
| 2026-05-05 17:49 | 39.60990 | 19.91138 | 9 ft | 8 kts | 166° |
| 2026-05-05 17:49 | 39.60937 | 19.91153 | 8 ft | 8 kts | 168° |
| 2026-05-05 17:49 | 39.60882 | 19.91168 | 7 ft | 12 kts | 168° |
| 2026-05-05 17:50 | 39.60786 | 19.91193 | 7 ft | 11 kts | 169° |
| 2026-05-05 17:50 | 39.60733 | 19.91213 | 7 ft | 5 kts | 133° |
| 2026-05-05 17:50 | 39.60727 | 19.91248 | 8 ft | 4 kts | 87° |
| 2026-05-05 17:50 | 39.60733 | 19.91293 | 8 ft | 4 kts | 77° |
| 2026-05-05 17:51 | 39.60737 | 19.91318 | 8 ft | 2 kts | 78° |
| 2026-05-05 17:51 | 39.60739 | 19.91331 | 8 ft | 2 kts | 79° |
| 2026-05-05 17:51 | 39.60741 | 19.91347 | 8 ft | 0 kts | 79° |
| 2026-05-05 17:51 | 39.60742 | 19.91348 | 8 ft | 0 kts | 79° |